SCPY weather

Cerro Castillo Airport
Cerro Castillo, Magallanes Region, Chile

Public forecast

Using degrees Celsius for public forecast. Weather courtesy of forecast.io.

METAR (pilot weather report)

Report is more than 6 hours old.

Closest report is 28 de Noviembre Airport, 21.0 nm (39.0 km) SSE. Retrieved 2019/02/05 12:20 UTC (11 days ago):

SAWT 051220Z VRB01KT CAVOK 22/06 Q0994

TAF (pilot weather forecast)

Forecast is more than 12 hours old.

Closest forecast is Tte. Julio Gallardo Airport, 25.6 nm (47.4 km) SSW. Retrieved 2019/02/15 12:00 UTC (21 hours ago):

TAF SCNT 151028Z 1512/1600 36010KT 8000 SCT030 TN13/1512Z TX20/1518Z BECMG 1512/1514 29015G25KT TEMPO 1512/1515 6000 RA SCT010 BKN020 BECMG 1516/1518 29025G40KT 9999 NSW TEMPO 1518/1522 29036G46KT